Smithfield, Nebraska
Current Conditions -  °F | °C
As of 7:15 PM on Sunday 23 Nov 2014 (Local Time) from KLXN Reporting Station
Clear Clear  
Wind Chill: 29°   Ceiling: Unl
Heat Index: 38°   Visibility: 10mi
Dew Point: 19°   Wind: 18mph
Humidity: 46%   Direction: 330°NNW
Pressure: 29.7"   Gusts: 26mph
Location:  40.57°N, 99.74°W
Report Text: KLXN 240115Z AUTO 33016G23KT 10SM CLR 04/M07 A2970 RMK AO2 T00361070
Loading
Personal Weather Stations






























Interactive Weather Map New forecast layout! Learn more

10-Day Weather Forecast

Advertisements
Track Severe Weather on mobile